Time;durP1;ratioP1;P1;durP2;ratioP2;P2;SDS_P1;SDS_P2;PMS_P1;PMS_P2;Temp;Humidity;BMP_temperature;BMP_pressure;BME280_temperature;BME280_humidity;BME280_pressure;Samples;Min_cycle;Max_cycle;Signal;HPM_P1;HPM_P2
2022/09/26 00:01:28;;;;;;;9.00;4.42;;;;;;;10.29;85.84;95220.41;1825471;78;21098;-71
2022/09/26 00:03:58;;;;;;;6.22;4.60;;;;;;;10.28;85.72;95222.65;1825114;78;21002;-71
2022/09/26 00:06:25;;;;;;;5.00;3.95;;;;;;;10.32;85.78;95223.42;1826535;78;21368;-71
2022/09/26 00:08:53;;;;;;;5.45;4.08;;;;;;;10.28;85.48;95221.75;1826013;78;21053;-71
2022/09/26 00:11:24;;;;;;;4.87;3.92;;;;;;;10.31;85.70;95213.80;1826051;78;21441;-71
2022/09/26 00:13:55;;;;;;;9.53;5.20;;;;;;;10.24;85.14;95206.44;1826111;78;21170;-71
2022/09/26 00:16:23;;;;;;;4.60;3.95;;;;;;;10.18;85.27;95203.95;1825973;78;21030;-71
2022/09/26 00:18:52;;;;;;;5.80;4.20;;;;;;;10.24;85.91;95206.44;1825836;78;21090;-71
2022/09/26 00:21:20;;;;;;;7.40;4.92;;;;;;;10.26;85.61;95202.45;1826078;78;21049;-71
2022/09/26 00:23:47;;;;;;;6.58;4.35;;;;;;;10.23;85.80;95198.55;1826091;78;21033;-71
2022/09/26 00:26:17;;;;;;;5.60;4.78;;;;;;;10.21;85.77;95201.24;1826170;78;20963;-71
2022/09/26 00:28:44;;;;;;;4.95;4.33;;;;;;;10.24;85.85;95198.53;1826007;78;20986;-71
2022/09/26 00:31:15;;;;;;;6.58;4.30;;;;;;;10.27;85.48;95202.40;1820637;78;21038;-71
2022/09/26 00:33:43;;;;;;;5.83;3.83;;;;;;;10.19;84.89;95201.72;1826098;78;21062;-71
2022/09/26 00:36:10;;;;;;;6.08;4.40;;;;;;;10.13;84.89;95195.26;1825762;78;21014;-71
2022/09/26 00:38:37;;;;;;;5.58;4.08;;;;;;;10.14;85.45;95187.33;1826123;78;21488;-71
2022/09/26 00:41:04;;;;;;;6.47;4.37;;;;;;;10.10;85.23;95180.38;1826422;78;21002;-71
2022/09/26 00:43:42;;;;;;;7.65;4.60;;;;;;;10.09;85.66;95182.61;1825871;78;21053;-71
2022/09/26 00:46:33;;;;;;;7.97;4.42;;;;;;;10.14;85.80;95186.01;1820763;78;21030;-71
2022/09/26 00:49:31;;;;;;;4.78;4.28;;;;;;;10.19;85.79;95178.00;1825942;78;21002;-71
2022/09/26 00:52:21;;;;;;;4.65;4.00;;;;;;;10.28;85.83;95178.25;1824855;78;20983;-71
2022/09/26 00:54:51;;;;;;;4.75;3.90;;;;;;;10.29;85.06;95180.86;1824948;78;21026;-71
2022/09/26 00:57:26;;;;;;;5.83;3.95;;;;;;;10.25;84.96;95182.25;1825375;78;21087;-71
2022/09/26 00:59:58;;;;;;;4.80;3.95;;;;;;;10.18;84.53;95185.05;1825623;78;21042;-71
2022/09/26 01:02:27;;;;;;;4.92;4.10;;;;;;;10.09;84.48;95185.25;1826163;78;20994;-71
2022/09/26 01:04:57;;;;;;;8.78;4.33;;;;;;;10.02;84.77;95191.56;1825903;78;21018;-70
2022/09/26 01:07:26;;;;;;;7.65;4.35;;;;;;;10.05;85.58;95191.94;1826061;78;20966;-71
2022/09/26 01:09:55;;;;;;;10.43;4.25;;;;;;;10.06;85.41;95187.96;1823080;78;21022;-71
2022/09/26 01:12:22;;;;;;;6.45;3.92;;;;;;;10.12;85.78;95188.27;1821143;79;20998;-70
2022/09/26 01:14:54;;;;;;;3.98;3.58;;;;;;;10.17;85.21;95181.11;1820830;79;21058;-71
2022/09/26 01:17:23;;;;;;;6.00;3.50;;;;;;;10.17;84.97;95175.84;1820954;79;21222;-71
2022/09/26 01:20:13;;;;;;;4.30;3.45;;;;;;;10.19;85.02;95174.90;1821153;79;21086;-71
2022/09/26 01:23:08;;;;;;;6.08;3.37;;;;;;;10.19;84.86;95178.00;1821079;79;21018;-71
2022/09/26 01:26:14;;;;;;;6.80;3.45;;;;;;;10.21;84.83;95180.15;1821193;79;21006;-71
2022/09/26 01:29:24;;;;;;;4.92;3.62;;;;;;;10.24;85.05;95189.76;1821239;79;20955;-71
2022/09/26 01:35:30;;;;;;;7.53;4.05;;;;;;;10.25;84.98;95178.30;1821224;79;21484;-72
2022/09/26 01:38:47;;;;;;;6.55;3.33;;;;;;;10.23;85.24;95174.39;1820746;79;20947;-71
2022/09/26 01:41:48;;;;;;;6.15;3.72;;;;;;;10.23;84.98;95182.73;1755579;82;21050;-71
2022/09/26 01:44:42;;;;;;;5.85;3.40;;;;;;;10.24;85.53;95169.98;1821274;79;21476;-71
2022/09/26 01:47:26;;;;;;;5.28;2.95;;;;;;;10.17;84.63;95179.34;1820798;79;21014;-71
2022/09/26 01:50:02;;;;;;;;;;;;;;;10.13;84.51;95182.08;1823917;79;20982;-71
2022/09/26 01:52:49;;;;;;;5.60;3.27;;;;;;;10.00;84.96;95178.86;1821568;79;20117;-71
2022/09/26 01:55:37;;;;;;;5.65;3.10;;;;;;;9.91;85.29;95179.95;1821739;79;21010;-70
2022/09/26 01:58:24;;;;;;;4.60;3.47;;;;;;;9.89;85.80;95172.52;1821444;79;21002;-71
2022/09/26 02:00:53;;;;;;;6.33;3.08;;;;;;;9.95;86.22;95165.81;1821460;79;21006;-71
2022/09/26 02:03:26;;;;;;;9.70;3.42;;;;;;;9.98;86.38;95162.24;1820973;79;20979;-71
2022/09/26 02:06:03;;;;;;;6.85;4.40;;;;;;;10.09;86.86;95156.70;1821404;79;20973;-71
2022/09/26 02:08:43;;;;;;;8.28;4.25;;;;;;;10.18;86.39;95161.31;1821402;79;21038;-71
2022/09/26 02:11:18;;;;;;;7.42;4.83;;;;;;;10.15;85.30;95162.72;1831728;78;21009;-71
2022/09/26 02:14:17;;;;;;;6.37;4.00;;;;;;;10.16;85.82;95153.03;1831974;78;21516;-71
2022/09/26 02:16:50;;;;;;;7.15;4.22;;;;;;;10.16;85.67;95134.58;1831179;78;21006;-71
2022/09/26 02:19:31;;;;;;;8.93;4.22;;;;;;;10.11;85.35;95143.91;1832250;78;21033;-71
2022/09/26 02:22:00;;;;;;;8.50;5.00;;;;;;;10.08;85.46;95142.67;1790999;78;21025;-71
2022/09/26 02:24:28;;;;;;;5.17;4.22;;;;;;;10.02;85.47;95137.98;1829374;78;21098;-71
2022/09/26 02:26:56;;;;;;;6.78;4.42;;;;;;;9.94;85.51;95128.48;1831979;78;21058;-71
2022/09/26 02:29:25;;;;;;;6.20;4.60;;;;;;;9.89;85.66;95128.19;1831785;78;21056;-71
2022/09/26 02:32:01;;;;;;;4.85;4.45;;;;;;;9.89;85.70;95130.36;1831806;78;21017;-71
2022/09/26 02:34:28;;;;;;;6.50;4.55;;;;;;;9.89;85.89;95121.59;1831886;78;21041;-71
2022/09/26 02:36:56;;;;;;;6.35;4.30;;;;;;;9.83;85.76;95118.66;1832123;78;21018;-70
2022/09/26 02:39:25;;;;;;;6.62;3.98;;;;;;;9.81;85.93;95124.88;1802833;78;20970;-71
2022/09/26 02:42:20;;;;;;;4.55;3.83;;;;;;;9.77;86.02;95121.88;1832034;78;20958;-71
2022/09/26 02:45:08;;;;;;;4.42;4.03;;;;;;;9.70;87.01;95115.45;1831977;78;21577;-71
2022/09/26 02:47:46;;;;;;;10.28;4.70;;;;;;;9.66;86.55;95116.86;1831677;78;20974;-71
2022/09/26 02:50:42;;;;;;;5.33;4.35;;;;;;;9.69;86.78;95119.42;1831920;78;21480;-71
2022/09/26 02:53:23;;;;;;;4.25;3.83;;;;;;;9.71;86.36;95113.67;1832376;78;21033;-71
2022/09/26 02:56:30;;;;;;;4.35;3.95;;;;;;;9.70;86.86;95102.27;1831505;78;21022;-71
2022/09/26 02:59:05;;;;;;;4.83;3.62;;;;;;;9.72;86.71;95104.85;1832043;78;21041;-71
2022/09/26 03:01:45;;;;;;;4.17;3.60;;;;;;;9.78;86.94;95110.00;1831722;78;21010;-71
2022/09/26 03:04:42;;;;;;;4.60;3.60;;;;;;;9.80;87.17;95101.58;1830468;78;21072;-71
2022/09/26 03:07:15;;;;;;;7.37;3.75;;;;;;;9.87;87.20;95100.54;1831702;78;21010;-71
2022/09/26 03:09:42;;;;;;;5.67;3.92;;;;;;;9.93;87.28;95095.14;1829271;78;20979;-71
2022/09/26 03:12:10;;;;;;;4.35;3.95;;;;;;;10.01;87.59;95093.64;1821359;79;20994;-71
2022/09/26 03:14:40;;;;;;;5.05;3.35;;;;;;;10.05;87.01;95090.00;1821326;79;21002;-70
2022/09/26 03:17:09;;;;;;;4.20;3.40;;;;;;;10.09;86.65;95091.67;1821059;79;21030;-70
2022/09/26 03:19:56;;;;;;;4.67;3.10;;;;;;;10.08;86.98;95088.63;1794258;79;20963;-71
2022/09/26 03:22:24;;;;;;;5.05;3.35;;;;;;;10.12;86.74;95080.19;1755537;82;21038;-70
2022/09/26 03:24:51;;;;;;;3.52;3.00;;;;;;;10.14;87.07;95088.47;1799931;79;21007;-71
2022/09/26 03:27:18;;;;;;;5.08;3.27;;;;;;;10.23;87.21;95077.27;1821371;79;20943;-71
2022/09/26 03:29:46;;;;;;;3.52;3.17;;;;;;;10.31;87.11;95081.48;1821135;79;21073;-71
2022/09/26 03:32:14;;;;;;;5.53;3.62;;;;;;;10.30;86.49;95077.10;1820966;79;20990;-71
2022/09/26 03:34:41;;;;;;;6.22;4.00;;;;;;;10.33;86.86;95073.09;1821218;79;20991;-71
2022/09/26 03:37:08;;;;;;;3.55;3.20;;;;;;;10.38;86.45;95071.63;1821474;79;21002;-71
2022/09/26 03:39:35;;;;;;;3.90;3.25;;;;;;;10.41;86.59;95067.62;1821432;79;21001;-71
2022/09/26 03:42:09;;;;;;;5.00;3.10;;;;;;;10.45;86.21;95065.29;1821454;79;21447;-71
2022/09/26 03:44:37;;;;;;;13.40;7.22;;;;;;;10.41;86.17;95061.02;1821103;79;21018;-71
2022/09/26 03:47:16;;;;;;;8.28;4.58;;;;;;;10.47;86.71;95057.34;1821122;79;21010;-71
2022/09/26 03:49:45;;;;;;;7.67;4.75;;;;;;;10.57;86.45;95066.75;1821320;79;21480;-71
2022/09/26 03:52:12;;;;;;;4.37;3.65;;;;;;;10.50;85.90;95061.22;1820782;79;21045;-71
2022/09/26 03:54:39;;;;;;;7.62;4.10;;;;;;;10.48;85.70;95057.75;1821281;79;21030;-71
2022/09/26 03:57:06;;;;;;;7.90;4.22;;;;;;;10.50;86.12;95055.48;1789163;79;20986;-71
2022/09/26 03:59:34;;;;;;;7.62;4.00;;;;;;;10.61;86.46;95051.25;1821283;79;20966;-71
2022/09/26 04:02:02;;;;;;;4.90;3.83;;;;;;;10.67;85.95;95057.67;1821313;79;21085;-71
2022/09/26 04:04:31;;;;;;;5.80;3.95;;;;;;;10.59;85.64;95062.30;1821529;79;21389;-71
2022/09/26 04:06:59;;;;;;;5.65;4.50;;;;;;;10.64;85.98;95046.34;1821078;79;21066;-72
2022/09/26 04:09:26;;;;;;;6.97;6.25;;;;;;;10.56;85.84;95035.55;1821170;78;21053;-70
2022/09/26 04:11:54;;;;;;;7.85;4.87;;;;;;;10.61;86.62;95040.70;1831628;78;21094;-71
2022/09/26 04:14:21;;;;;;;7.90;5.20;;;;;;;10.69;86.84;95041.34;1831853;78;21002;-71
2022/09/26 04:16:50;;;;;;;8.88;5.85;;;;;;;10.67;86.00;95038.34;1831435;78;21053;-70
2022/09/26 04:19:18;;;;;;;8.90;5.47;;;;;;;10.59;85.87;95038.09;1831903;78;21022;-71
2022/09/26 04:21:44;;;;;;;9.43;7.00;;;;;;;10.60;86.23;95037.17;1832161;78;21006;-71
2022/09/26 04:24:15;;;;;;;6.97;5.58;;;;;;;10.56;86.04;95032.91;1832076;78;21002;-72
2022/09/26 04:26:44;;;;;;;6.70;5.15;;;;;;;10.54;86.06;95028.59;1831609;78;21069;-71
2022/09/26 04:29:12;;;;;;;11.30;7.10;;;;;;;10.51;85.77;95027.36;1831872;78;21018;-71
2022/09/26 04:31:47;;;;;;;8.13;6.25;;;;;;;10.45;85.99;95020.91;1831819;78;21021;-71
2022/09/26 04:34:14;;;;;;;7.47;5.20;;;;;;;10.42;86.07;95019.69;1831842;78;20950;-71
2022/09/26 04:36:42;;;;;;;7.70;5.80;;;;;;;10.37;86.30;95020.66;1831837;78;21057;-71
2022/09/26 04:39:10;;;;;;;9.83;6.40;;;;;;;10.36;86.32;95002.27;1831995;78;20978;-71
2022/09/26 04:41:37;;;;;;;6.47;5.62;;;;;;;10.36;86.47;95004.90;1832166;78;21437;-71
2022/09/26 04:44:04;;;;;;;9.75;6.05;;;;;;;10.33;86.24;94992.66;1831985;78;21022;-71
2022/09/26 04:46:32;;;;;;;8.18;6.40;;;;;;;10.31;86.10;94995.80;1831801;78;21406;-71
2022/09/26 04:49:00;;;;;;;6.78;5.08;;;;;;;10.32;86.15;94990.06;1802390;78;21456;-71
2022/09/26 04:51:30;;;;;;;9.65;6.10;;;;;;;10.34;86.08;94976.38;1831953;78;21094;-71
2022/09/26 04:53:59;;;;;;;62.85;49.83;;;;;;;10.33;86.17;94987.81;1831894;78;20935;-71
2022/09/26 04:56:29;;;;;;;18.02;13.75;;;;;;;10.34;86.69;94978.56;1831207;78;21056;-70
2022/09/26 04:58:57;;;;;;;29.20;25.02;;;;;;;10.35;87.00;94988.65;1831439;78;20975;-69
2022/09/26 05:01:28;;;;;;;37.13;32.50;;;;;;;10.38;87.18;94985.48;1831042;78;21104;-70
2022/09/26 05:04:12;;;;;;;20.48;17.25;;;;;;;10.43;87.28;94980.06;1804997;78;21056;-73
2022/09/26 05:06:38;;;;;;;13.03;10.75;;;;;;;10.49;87.62;94983.01;1830554;78;21034;-72
2022/09/26 05:09:05;;;;;;;14.73;10.68;;;;;;;10.49;86.90;94994.42;1831893;78;21468;-69
2022/09/26 05:11:36;;;;;;;19.90;16.07;;;;;;;10.53;87.25;94984.63;1819359;78;21018;-74
2022/09/26 05:14:03;;;;;;;29.40;22.35;;;;;;;10.57;87.30;94986.28;1825563;78;20987;-72
2022/09/26 05:16:30;;;;;;;15.53;13.05;;;;;;;10.64;87.47;94987.84;1825934;78;21006;-72
2022/09/26 05:18:58;;;;;;;17.82;15.00;;;;;;;10.65;86.98;94988.24;1825609;78;21045;-73
2022/09/26 05:21:26;;;;;;;20.43;14.63;;;;;;;10.66;86.74;94990.42;1826168;78;21037;-72
2022/09/26 05:26:42;;;;;;;13.38;11.95;;;;;;;10.70;87.34;94981.52;1825614;78;21077;-75
2022/09/26 05:29:10;;;;;;;17.90;13.35;;;;;;;10.68;87.40;94972.32;1825272;78;21043;-74
2022/09/26 05:31:42;;;;;;;11.18;7.37;;;;;;;10.78;87.79;94978.20;1824930;78;20994;-74
2022/09/26 05:34:11;;;;;;;8.53;7.33;;;;;;;10.85;87.27;94973.62;1825444;78;21041;-73
2022/09/26 05:36:41;;;;;;;12.43;10.05;;;;;;;10.91;87.47;94974.73;1825788;78;21066;-70
2022/09/26 05:40:55;;;;;;;14.25;9.98;;;;;;;10.97;87.52;94977.22;1826023;78;20985;-73
2022/09/26 05:41:37;;;;;;;14.38;9.93;;;;;;;11.03;87.32;94982.30;1825176;78;21018;-70
2022/09/26 05:44:04;;;;;;;14.53;12.13;;;;;;;11.07;87.37;94981.30;1825722;78;21014;-70
2022/09/26 05:46:33;;;;;;;12.20;10.05;;;;;;;11.14;87.52;94970.97;1825990;78;21010;-69
2022/09/26 05:49:02;;;;;;;14.10;9.68;;;;;;;11.18;87.51;94972.59;1825083;78;21006;-70
2022/09/26 05:51:29;;;;;;;10.53;8.83;;;;;;;11.23;87.32;94969.81;1825711;79;20994;-73
2022/09/26 05:53:56;;;;;;;10.95;8.73;;;;;;;11.32;87.46;94971.31;1826357;78;21022;-77
2022/09/26 05:56:23;;;;;;;46.42;26.77;;;;;;;11.43;87.53;94965.22;1825643;78;21120;-74
2022/09/26 05:58:53;;;;;;;18.77;12.20;;;;;;;11.53;87.15;94964.01;1823162;78;21054;-74
2022/09/26 06:01:39;;;;;;;14.93;10.00;;;;;;;11.65;87.01;94959.65;1825759;79;21014;-76
2022/09/26 06:04:09;;;;;;;12.60;10.35;;;;;;;11.72;86.51;94964.72;1824951;78;21041;-76
2022/09/26 06:06:37;;;;;;;19.52;13.80;;;;;;;11.86;87.06;94966.45;1824739;78;21540;-75
2022/09/26 06:09:06;;;;;;;16.00;12.75;;;;;;;11.90;86.00;94956.23;1825447;78;21066;-75
2022/09/26 06:11:47;;;;;;;12.80;9.80;;;;;;;11.97;85.94;94959.50;1778981;78;21022;-78
2022/09/26 06:14:13;;;;;;;19.87;12.53;;;;;;;11.97;84.93;94951.58;1826365;78;20987;-72
2022/09/26 06:16:40;;;;;;;18.82;12.37;;;;;;;11.99;85.40;94945.78;1793474;78;21590;-71
2022/09/26 06:19:07;;;;;;;13.65;10.50;;;;;;;12.07;85.40;94945.05;1825272;79;21065;-69
2022/09/26 06:21:38;;;;;;;16.07;10.40;;;;;;;12.05;85.40;94950.88;1825839;78;21065;-74
2022/09/26 06:24:06;;;;;;;12.03;7.72;;;;;;;12.14;85.98;94951.86;1824635;79;21657;-74
2022/09/26 06:26:33;;;;;;;25.88;23.27;;;;;;;12.27;86.14;94951.86;1825798;78;20959;-71
2022/09/26 06:28:59;;;;;;;13.05;10.10;;;;;;;12.33;85.33;94948.13;1825580;79;21621;-70
2022/09/26 06:31:29;;;;;;;12.28;9.25;;;;;;;12.38;85.34;94949.28;1826013;78;20975;-83
2022/09/26 06:34:13;;;;;;;15.10;9.43;;;;;;;12.47;85.55;94943.20;1825312;79;21089;-70
2022/09/26 06:36:50;;;;;;;8.60;5.85;;;;;;;12.53;85.66;94937.67;1767726;80;20959;-71
2022/09/26 06:39:17;;;;;;;6.15;5.53;;;;;;;12.56;84.75;94936.70;1769003;81;21039;-72
2022/09/26 06:41:45;;;;;;;9.13;6.33;;;;;;;12.59;85.09;94933.08;1768583;81;21002;-72
2022/09/26 06:44:14;;;;;;;8.58;5.92;;;;;;;12.58;84.48;94936.19;1755814;81;21035;-73
2022/09/26 06:46:51;;;;;;;7.53;5.87;;;;;;;12.61;85.08;94932.56;1764277;81;20994;-74
2022/09/26 06:49:19;;;;;;;5.90;5.30;;;;;;;12.69;85.17;94929.16;1767719;81;21026;-71
2022/09/26 06:51:56;;;;;;;8.08;5.97;;;;;;;12.72;84.46;94927.25;1767156;81;21065;-71
2022/09/26 06:54:23;;;;;;;8.90;6.97;;;;;;;12.75;84.47;94936.86;1768020;81;21034;-71
2022/09/26 06:56:50;;;;;;;7.40;6.20;;;;;;;12.70;84.15;94946.32;1768465;81;21021;-76
2022/09/26 06:59:17;;;;;;;11.65;6.95;;;;;;;12.78;84.54;94942.92;1768061;81;21060;-73
2022/09/26 07:01:48;;;;;;;11.53;7.45;;;;;;;12.79;84.44;94945.10;1766967;81;21519;-69
2022/09/26 07:04:34;;;;;;;9.73;7.90;;;;;;;12.83;84.60;94937.46;1768171;81;21535;-72
2022/09/26 07:07:03;;;;;;;10.53;7.08;;;;;;;12.83;84.35;94928.19;1767299;81;21503;-70
2022/09/26 07:09:30;;;;;;;10.82;9.65;;;;;;;12.84;84.29;94926.41;1768402;81;21018;-72
2022/09/26 07:11:58;;;;;;;8.55;7.60;;;;;;;12.90;84.29;94925.72;1767759;81;21453;-80
2022/09/26 07:14:25;;;;;;;8.28;5.85;;;;;;;12.97;84.08;94913.94;1768169;81;21030;-76
2022/09/26 07:16:56;;;;;;;8.18;6.70;;;;;;;12.99;82.78;94912.10;1766298;81;21543;-79
2022/09/26 07:19:25;;;;;;;7.00;6.22;;;;;;;12.98;81.99;94919.66;1763019;81;21591;-77
2022/09/26 07:22:02;;;;;;;19.12;15.32;;;;;;;12.97;81.71;94915.73;1767680;81;21030;-77
2022/09/26 07:24:34;;;;;;;12.20;9.80;;;;;;;12.89;81.09;94900.14;1764905;81;21528;-78
2022/09/26 07:27:02;;;;;;;10.98;8.63;;;;;;;12.93;81.80;94904.41;1768280;81;21026;-74
2022/09/26 07:29:29;;;;;;;7.60;5.50;;;;;;;12.98;81.35;94919.66;1768423;81;21536;-69
2022/09/26 07:31:58;;;;;;;7.12;6.40;;;;;;;13.05;81.67;94910.99;1768172;81;21066;-69
2022/09/26 07:34:26;;;;;;;12.53;9.08;;;;;;;13.09;80.94;94908.64;1764633;81;20998;-74
2022/09/26 07:36:53;;;;;;;7.60;6.80;;;;;;;13.18;81.32;94900.81;1768255;81;21049;-72
2022/09/26 07:39:21;;;;;;;6.75;6.08;;;;;;;13.39;81.21;94893.80;1768090;81;21535;-71
2022/09/26 07:41:48;;;;;;;8.03;6.47;;;;;;;13.39;81.21;94893.80;1766808;81;21038;-68
2022/09/26 07:44:15;;;;;;;7.45;5.92;;;;;;;13.45;81.06;94908.58;1766617;81;21538;-76
2022/09/26 07:52:29;;;;;;;7.17;5.65;;;;;;;13.63;80.03;94896.78;1691851;82;21002;-72
2022/09/26 07:55:19;;;;;;;6.50;5.33;;;;;;;13.75;80.54;94897.17;1758143;82;21729;-79
2022/09/26 07:57:50;;;;;;;9.58;6.10;;;;;;;13.83;80.60;94885.77;1755353;81;21574;-73
2022/09/26 08:00:30;;;;;;;6.65;5.53;;;;;;;13.98;78.26;94869.67;1756279;82;21539;-69
2022/09/26 08:03:00;;;;;;;7.22;5.83;;;;;;;13.98;78.26;94869.67;1757290;82;21066;-74
2022/09/26 08:05:28;;;;;;;6.75;5.78;;;;;;;14.03;78.59;94867.68;1757462;81;21558;-75
2022/09/26 08:07:55;;;;;;;6.92;5.67;;;;;;;14.06;79.04;94862.23;1758513;81;21029;-71
2022/09/26 08:10:42;;;;;;;7.83;6.10;;;;;;;14.19;79.12;94863.44;1763397;80;21042;-73
2022/09/26 08:13:17;;;;;;;11.70;8.53;;;;;;;14.15;77.17;94871.59;1716002;80;21030;-74
2022/09/26 08:15:45;;;;;;;9.23;7.37;;;;;;;14.22;77.90;94867.75;1778900;80;21509;-76
2022/09/26 08:18:14;;;;;;;7.75;6.92;;;;;;;14.35;78.15;94878.67;1793866;80;21133;-76
2022/09/26 08:20:46;;;;;;;8.40;6.40;;;;;;;14.47;78.24;94874.14;1794800;80;21579;-72
2022/09/26 08:23:10;;;;;;;10.78;6.37;;;;;;;14.68;78.01;94873.18;1794948;80;21116;-70
2022/09/26 08:25:37;;;;;;;11.63;9.43;;;;;;;14.96;77.64;94873.70;1795984;79;21029;-78
2022/09/26 08:28:15;;;;;;;8.55;7.75;;;;;;;15.03;76.45;94870.67;1794263;80;21023;-73
2022/09/26 08:30:39;;;;;;;7.85;6.30;;;;;;;15.11;76.21;94861.01;1795116;80;21532;-75
2022/09/26 08:33:08;;;;;;;6.50;5.85;;;;;;;15.32;74.71;94868.40;1795690;80;20995;-78
2022/09/26 08:35:37;;;;;;;9.55;5.25;;;;;;;15.52;76.01;94850.14;1795111;80;21006;-76
2022/09/26 08:38:17;;;;;;;6.15;4.85;;;;;;;15.80;75.73;94843.02;1794493;80;21002;-77
2022/09/26 08:41:19;;;;;;;6.30;5.50;;;;;;;15.99;74.60;94845.58;1796164;80;20987;-77
2022/09/26 08:44:37;;;;;;;5.47;4.97;;;;;;;16.15;73.66;94843.86;1796115;80;21011;-74
2022/09/26 08:47:33;;;;;;;5.58;4.97;;;;;;;16.09;71.09;94848.63;1796068;80;21058;-75
2022/09/26 08:50:44;;;;;;;7.62;5.80;;;;;;;15.95;70.97;94844.00;1795717;80;20995;-76
2022/09/26 08:53:24;;;;;;;11.38;8.55;;;;;;;15.74;71.33;94849.48;1796205;79;21437;-74
2022/09/26 08:55:56;;;;;;;11.38;9.00;;;;;;;15.55;72.21;94857.98;1795984;80;21038;-82
2022/09/26 08:58:31;;;;;;;12.18;7.80;;;;;;;15.40;72.85;94874.23;1796066;80;20994;-72
2022/09/26 09:01:03;;;;;;;10.90;9.33;;;;;;;15.24;72.95;94884.72;1785807;80;21014;-77
2022/09/26 09:03:40;;;;;;;10.35;8.23;;;;;;;15.13;73.79;94898.53;1794836;80;21445;-72
2022/09/26 09:06:12;;;;;;;11.90;8.95;;;;;;;14.99;74.30;94898.30;1791771;80;21089;-78
2022/09/26 09:08:50;;;;;;;8.88;7.10;;;;;;;14.91;75.06;94889.84;1796215;80;21010;-71
2022/09/26 09:12:08;;;;;;;10.35;7.95;;;;;;;14.83;76.00;94889.34;1782159;80;21565;-70
2022/09/26 09:15:18;;;;;;;13.98;8.88;;;;;;;14.78;77.06;94894.02;1774227;80;21470;-74
2022/09/26 09:18:13;;;;;;;18.30;11.65;;;;;;;14.70;77.92;94897.88;1772580;80;21015;-73
2022/09/26 09:20:59;;;;;;;11.78;8.40;;;;;;;14.57;79.50;94901.17;1772122;80;20995;-73
2022/09/26 09:24:06;;;;;;;12.25;8.30;;;;;;;14.42;79.06;94894.25;1743709;81;21015;-73
2022/09/26 09:27:00;;;;;;;9.85;7.25;;;;;;;14.29;80.30;94898.39;1774103;80;21035;-73
2022/09/26 09:29:56;;;;;;;8.58;6.40;;;;;;;14.18;80.89;94906.80;1774303;80;21044;-73
2022/09/26 09:32:59;;;;;;;6.95;6.22;;;;;;;14.21;82.15;94913.33;1774235;81;21032;-72
2022/09/26 09:35:41;;;;;;;8.53;6.50;;;;;;;14.19;81.88;94906.36;1771055;80;21551;-71
2022/09/26 09:38:28;;;;;;;8.60;6.90;;;;;;;14.08;81.63;94906.80;1752970;81;21042;-71
2022/09/26 09:41:08;;;;;;;11.10;7.25;;;;;;;14.10;83.43;94908.08;1755883;81;21018;-72
2022/09/26 09:43:46;;;;;;;8.65;7.30;;;;;;;14.04;82.85;94919.34;1758996;81;21011;-72
2022/09/26 09:46:29;;;;;;;11.03;7.78;;;;;;;14.01;82.72;94921.25;1759016;81;21019;-73
2022/09/26 09:48:59;;;;;;;;;;;;;;;13.97;83.42;94915.23;1762025;81;21000;-67
2022/09/26 09:52:20;;;;;;;11.50;9.38;;;;;;;14.04;84.18;94913.19;1760076;81;20105;-74
2022/09/26 09:55:30;;;;;;;10.48;7.70;;;;;;;14.04;84.18;94913.19;1759575;81;21564;-74
2022/09/26 09:58:33;;;;;;;10.18;7.50;;;;;;;14.09;83.96;94934.22;1751025;81;21481;-74
2022/09/26 10:01:15;;;;;;;17.57;9.10;;;;;;;14.05;84.00;94942.28;1774499;80;21066;-73
2022/09/26 10:04:06;;;;;;;29.18;19.25;;;;;;;14.07;84.18;94949.72;1774114;81;20991;-74
2022/09/26 10:06:34;;;;;;;13.98;10.40;;;;;;;14.10;83.86;94948.72;1774500;81;21007;-73
2022/09/26 10:09:17;;;;;;;11.83;10.28;;;;;;;14.15;84.12;94949.39;1774330;80;21023;-73
2022/09/26 10:11:53;;;;;;;13.18;9.95;;;;;;;14.17;84.01;94966.58;1734538;80;20992;-73
2022/09/26 10:14:36;;;;;;;12.47;9.20;;;;;;;14.15;84.03;94965.30;1711232;81;20996;-73
2022/09/26 10:17:13;;;;;;;9.10;7.30;;;;;;;14.17;84.41;94946.68;1774350;81;21043;-74
2022/09/26 10:19:43;;;;;;;8.08;7.28;;;;;;;14.29;84.75;94941.70;1773115;80;20983;-73
2022/09/26 10:22:28;;;;;;;7.72;6.60;;;;;;;14.29;84.75;94941.70;1774702;81;21086;-73
2022/09/26 10:25:09;;;;;;;8.13;6.80;;;;;;;14.30;84.54;94947.87;1774575;81;20999;-73
2022/09/26 10:27:40;;;;;;;9.68;6.95;;;;;;;14.32;84.70;94946.48;1773917;80;21023;-73
2022/09/26 10:30:30;;;;;;;9.23;6.17;;;;;;;14.36;84.65;94964.84;1774575;81;20984;-74
2022/09/26 10:32:59;;;;;;;8.03;5.90;;;;;;;14.37;84.83;94959.95;1773738;80;21038;-74
2022/09/26 10:35:45;;;;;;;8.35;6.40;;;;;;;14.41;85.03;94962.87;1755014;81;21043;-74
2022/09/26 10:38:30;;;;;;;6.53;5.08;;;;;;;14.40;85.45;94954.97;1774383;81;20999;-73
2022/09/26 10:41:02;;;;;;;5.37;4.12;;;;;;;14.39;85.12;94957.20;1773052;80;20976;-74
2022/09/26 10:43:34;;;;;;;6.60;4.00;;;;;;;14.39;85.46;94965.17;1774741;80;21505;-73
2022/09/26 10:46:21;;;;;;;9.98;5.62;;;;;;;14.42;85.57;94943.36;1773733;80;21529;-74
2022/09/26 10:49:00;;;;;;;6.70;4.67;;;;;;;14.43;85.99;94904.39;1774275;81;21063;-74
2022/09/26 10:51:49;;;;;;;16.63;10.23;;;;;;;14.50;86.58;94898.74;1751707;80;21502;-74
2022/09/26 10:54:23;;;;;;;19.70;10.88;;;;;;;14.55;86.39;94909.66;1774768;80;21004;-74
2022/09/26 10:56:56;;;;;;;10.80;7.53;;;;;;;14.64;86.54;94895.95;1774600;80;21059;-73
2022/09/26 10:59:30;;;;;;;7.12;5.70;;;;;;;14.87;87.03;94884.30;1774682;81;21024;-73
2022/09/26 11:01:58;;;;;;;6.08;4.90;;;;;;;14.98;86.38;94879.80;1755125;81;21501;-73
2022/09/26 11:07:41;;;;;;;4.80;4.30;;;;;;;15.07;85.35;94897.50;1774373;81;20980;-73
2022/09/26 11:10:14;;;;;;;5.92;5.33;;;;;;;14.99;84.76;94898.30;1773118;80;21075;-73
2022/09/26 11:13:17;;;;;;;5.85;4.60;;;;;;;15.03;85.24;94896.39;1762215;80;21517;-74
2022/09/26 11:16:09;;;;;;;5.22;4.72;;;;;;;15.06;85.21;94898.42;1721586;83;21039;-73
2022/09/26 11:19:15;;;;;;;5.10;4.60;;;;;;;15.01;84.33;94903.09;1758770;81;20984;-73
2022/09/26 11:22:13;;;;;;;4.60;4.20;;;;;;;14.84;83.94;94903.89;1721359;83;21022;-73
2022/09/26 11:25:00;;;;;;;5.30;4.80;;;;;;;14.69;84.27;94889.52;1765395;81;21018;-73
2022/09/26 11:27:59;;;;;;;7.62;6.00;;;;;;;14.65;84.65;94895.89;1710860;82;21093;-74
2022/09/26 11:30:29;;;;;;;5.50;4.90;;;;;;;14.65;84.67;94902.53;1771719;80;21479;-73
2022/09/26 11:32:59;;;;;;;9.28;6.47;;;;;;;14.50;84.37;94894.77;1739771;82;21568;-73
2022/09/26 11:36:09;;;;;;;9.58;8.03;;;;;;;14.48;85.05;94901.07;1770989;81;21054;-74
2022/09/26 11:38:48;;;;;;;6.85;6.22;;;;;;;14.44;84.99;94887.09;1770470;81;21079;-73
2022/09/26 11:41:47;;;;;;;8.28;7.47;;;;;;;14.48;85.31;94888.66;1770856;81;21521;-73
2022/09/26 11:44:55;;;;;;;7.40;6.50;;;;;;;14.58;85.99;94892.27;1740305;82;20999;-73
2022/09/26 11:47:55;;;;;;;4.45;4.05;;;;;;;14.61;85.49;94894.77;1770918;80;21078;-74
2022/09/26 11:50:44;;;;;;;3.60;3.30;;;;;;;14.77;86.09;94898.94;1738514;82;21050;-73
2022/09/26 11:53:38;;;;;;;4.22;3.40;;;;;;;14.92;85.74;94885.80;1770887;80;21010;-73
2022/09/26 11:56:28;;;;;;;3.50;3.20;;;;;;;15.03;85.39;94877.31;1739845;82;21011;-73
2022/09/26 11:59:43;;;;;;;3.75;3.22;;;;;;;15.24;85.75;94871.43;1770982;81;21025;-73
2022/09/26 12:02:33;;;;;;;5.08;4.12;;;;;;;15.32;84.24;94860.42;1740117;82;21031;-73
2022/09/26 12:05:49;;;;;;;3.30;3.00;;;;;;;15.44;84.60;94866.47;1771088;81;21445;-73
2022/09/26 12:08:43;;;;;;;3.35;3.05;;;;;;;15.46;83.66;94857.11;1740159;82;21027;-73
2022/09/26 12:11:28;;;;;;;3.67;3.37;;;;;;;15.36;83.37;94861.53;1770652;81;21500;-74
2022/09/26 12:14:35;;;;;;;5.10;3.12;;;;;;;15.33;83.78;94852.86;1765274;80;21066;-74
2022/09/26 12:17:03;;;;;;;3.75;3.45;;;;;;;15.29;83.42;94847.29;1767729;81;21075;-73
2022/09/26 12:19:44;;;;;;;3.60;3.30;;;;;;;15.22;83.66;94833.91;1767405;81;21015;-73
2022/09/26 12:22:32;;;;;;;7.05;6.15;;;;;;;15.27;84.18;94805.30;1768589;80;21014;-73
2022/09/26 12:25:21;;;;;;;12.15;7.08;;;;;;;15.50;85.03;94805.52;1767584;81;21528;-74
2022/09/26 12:28:36;;;;;;;6.25;3.33;;;;;;;16.25;85.21;94805.61;1768168;81;21572;-74
2022/09/26 12:31:40;;;;;;;3.62;3.33;;;;;;;16.36;81.85;94813.90;1767945;81;20991;-74
2022/09/26 12:34:38;;;;;;;5.37;3.80;;;;;;;16.53;82.60;94802.80;1768745;81;21489;-73